Doris Moran — WRU2125 — position and weather

sailwx.info

Track history (hours):
 
Tides and Currents Weather Stations Pressure Air Temp Water Temp Dewpoint Dewpoint Depression Visibility Wind Speed Wind Dir Waves Ship Positions

Doris Moran

Owner: MORAN TOWING CORPORATION, New Canaan, CT. More information available from US FCC via Universal Licensing System and Coast Guard Vessel Documentation Center.

Last reported at 2015-Jul-29 21:34 UTC. Time now 2015-Jul-29 22:03 UTC.
Position N 41°40' W 070°41'.

Length 36 m; draft 5.3 m.

Type: Ship. MMSI: 366939790.

Date/timePositionNaut miles runAvg speedWind from/ knotsBaromVisibWave heightAir tempDewpointWater temp
2015-Jul-29 21:34N 41°40' W 070°41'8 8.3
2015-Jul-29 20:33N 41°32' W 070°46'6 6.3
2015-Jul-29 19:33N 41°29' W 070°54'8 7.7
2015-Jul-29 18:34N 41°25' W 071°03'8 8.1
2015-Jul-29 17:34N 41°21' W 071°12'8 8.1
2015-Jul-29 16:34N 41°18' W 071°22'8 8.4
2015-Jul-29 15:33N 41°18' W 071°33'9 9.3
2015-Jul-29 14:33N 41°16' W 071°45'8 8.5
2015-Jul-29 13:33N 41°15' W 071°56'6 5.8
2015-Jul-29 12:34N 41°14' W 072°04'5 5.5
2015-Jul-29 11:33N 41°13' W 072°11'6 6.5
2015-Jul-29 10:34N 41°11' W 072°19'7 6.9
2015-Jul-29 09:34N 41°09' W 072°28'8 7.7
2015-Jul-29 08:33N 41°07' W 072°38'8 8.3
2015-Jul-29 07:33N 41°05' W 072°48'8 8.4
2015-Jul-29 06:33N 41°03' W 072°59'9 8.7
2015-Jul-29 05:33N 41°01' W 073°11'8 8.5
2015-Jul-29 04:33N 41°01' W 073°22'7 7.0
2015-Jul-29 03:34N 40°58' W 073°30'5 5.5
2015-Jul-29 02:34N 40°55' W 073°37'8 8.1
2015-Jul-29 01:33N 40°51' W 073°46'6 6.4
2015-Jul-29 00:33N 40°48' W 073°53'6 6.2
2015-Jul-28 23:33N 40°43' W 073°58'7 7.1
2015-Jul-28 22:34N 40°39' W 074°06'0 0.0
2015-Jul-28 21:34N 40°39' W 074°06'0 0.0
2015-Jul-28 20:34N 40°39' W 074°06'0 0.0
2015-Jul-28 19:33N 40°39' W 074°06'0 0.0
2015-Jul-28 18:33N 40°39' W 074°06'0 0.0
2015-Jul-28 17:33N 40°39' W 074°06'0 0.0
2015-Jul-28 16:33N 40°39' W 074°06'0 0.0
2015-Jul-28 15:33N 40°39' W 074°06'0 0.0
2015-Jul-28 14:33N 40°39' W 074°06'0 0.0
2015-Jul-28 13:33N 40°39' W 074°06'0 0.0
2015-Jul-28 12:33N 40°39' W 074°06'0 0.0
2015-Jul-28 11:33N 40°39' W 074°06'0 0.0
2015-Jul-28 10:33N 40°39' W 074°06'1 1.0
2015-Jul-28 09:33N 40°39' W 074°04'2 1.7
2015-Jul-28 08:33N 40°40' W 074°03'0 0.1
2015-Jul-28 07:33N 40°40' W 074°02'0 0.1
2015-Jul-28 06:34N 40°40' W 074°03'5 5.0
2015-Jul-28 05:33N 40°45' W 074°01'9 9.1
2015-Jul-28 04:33N 40°53' W 073°56'17 7.1
2015-Jul-28 02:07N 41°10' W 073°55'23 0.7
2015-Jul-26 17:33N 40°48' W 073°59'9 9.5
2015-Jul-26 16:34N 40°39' W 074°04'3 2.4
2015-Jul-26 15:24N 40°38' W 074°08'0 0.0
2015-Jul-26 14:33N 40°38' W 074°08'0 0.0
2015-Jul-26 13:33N 40°38' W 074°08'0 0.0
2015-Jul-26 12:31N 40°38' W 074°08'0 0.0
2015-Jul-26 11:32N 40°38' W 074°08'0 0.0
2015-Jul-26 10:13N 40°38' W 074°08'0 0.0
2015-Jul-26 09:07N 40°38' W 074°08'0 0.0
2015-Jul-26 04:09N 40°38' W 074°08'0 0.0
2015-Jul-26 03:33N 40°38' W 074°08'0 0.0
2015-Jul-26 02:33N 40°38' W 074°08'0 0.0
2015-Jul-26 00:31N 40°38' W 074°08'0 0.0
2015-Jul-25 23:33N 40°38' W 074°08'7 6.8
2015-Jul-25 22:34N 40°33' W 074°02'4 3.7
2015-Jul-25 21:33N 40°37' W 074°03'4 3.8
2015-Jul-25 20:33N 40°38' W 074°08'1 1.0
2015-Jul-25 19:33N 40°39' W 074°07'0 0.0
2015-Jul-25 18:33N 40°39' W 074°07'0 0.0
2015-Jul-25 17:33N 40°39' W 074°07'1 0.6
2015-Jul-25 16:33N 40°39' W 074°06'2 1.6
2015-Jul-25 15:33N 40°38' W 074°08'0 0.0
2015-Jul-25 14:33N 40°38' W 074°08'0 0.0
2015-Jul-25 13:33N 40°38' W 074°08'3 2.8
2015-Jul-25 12:34N 40°41' W 074°08'1 1.4
2015-Jul-25 11:34N 40°40' W 074°08'1 1.5
2015-Jul-25 10:33N 40°38' W 074°08'0 0.0
2015-Jul-25 09:33N 40°38' W 074°08'0 0.0
2015-Jul-25 08:33N 40°38' W 074°08'0 0.0
2015-Jul-25 07:33N 40°38' W 074°08'0 0.0
2015-Jul-25 06:33N 40°38' W 074°08'0 0.0
2015-Jul-25 05:33N 40°38' W 074°08'0 0.0
2015-Jul-25 04:34N 40°38' W 074°08'0 0.0
2015-Jul-25 03:33N 40°38' W 074°08'0 0.0
2015-Jul-25 02:34N 40°38' W 074°08'0 0.0
2015-Jul-25 01:33N 40°38' W 074°08'0 0.0
2015-Jul-25 00:33N 40°38' W 074°08'0 0.0
2015-Jul-24 23:34N 40°38' W 074°08'3 2.6
2015-Jul-24 22:33N 40°41' W 074°08'1 0.8
2015-Jul-24 21:33N 40°42' W 074°08'1 0.6
2015-Jul-24 20:34N 40°41' W 074°08'2 1.7
2015-Jul-24 19:33N 40°39' W 074°09'6 6.4
2015-Jul-24 18:33N 40°41' W 074°01'3 2.9
2015-Jul-24 17:33N 40°40' W 074°04'0 0.0
2015-Jul-24 16:33N 40°40' W 074°04'0 0.3
2015-Jul-24 15:33N 40°40' W 074°04'3 2.9
2015-Jul-24 14:32N 40°38' W 074°08'0 0.0
2015-Jul-24 13:33N 40°38' W 074°08'0 0.0
2015-Jul-24 12:33N 40°38' W 074°08'0 0.0
2015-Jul-24 11:33N 40°38' W 074°08'2 1.8
2015-Jul-24 10:33N 40°40' W 074°08'4 3.9
2015-Jul-24 09:33N 40°39' W 074°04'1 1.1
2015-Jul-24 08:33N 40°40' W 074°04'4 3.6
2015-Jul-24 07:33N 40°38' W 074°09'3 2.5
2015-Jul-24 06:33N 40°41' W 074°09'2 1.7
2015-Jul-24 05:33N 40°39' W 074°09'1 1.1
2015-Jul-24 04:33N 40°38' W 074°08'0 0.0
2015-Jul-24 03:33N 40°38' W 074°08'0 0.0
2015-Jul-24 02:34N 40°38' W 074°08'0 0.0
2015-Jul-24 01:33N 40°38' W 074°08'0 0.0
2015-Jul-24 00:33N 40°38' W 074°08'6 6.4
2015-Jul-23 23:34N 40°41' W 074°00'7 6.9
2015-Jul-23 22:34N 40°39' W 074°09'3 3.3
2015-Jul-23 21:33N 40°42' W 074°09'2 2.2
2015-Jul-23 20:33N 40°40' W 074°09'1 1.1
2015-Jul-23 19:33N 40°41' W 074°09'4 4.2
2015-Jul-23 18:33N 40°39' W 074°04'1110.8
2015-Jul-23 17:33N 40°49' W 073°58'1 0.0
2015-Jul-22 17:33N 40°50' W 073°58'1010.2
2015-Jul-22 16:33N 40°40' W 074°03'3 2.6
2015-Jul-22 15:33N 40°39' W 074°06'0 0.0
2015-Jul-22 14:33N 40°39' W 074°06'0 0.0
2015-Jul-22 13:33N 40°39' W 074°06'0 0.0
2015-Jul-22 12:33N 40°39' W 074°06'0 0.0
2015-Jul-22 11:33N 40°39' W 074°06'0 0.0
2015-Jul-22 10:33N 40°39' W 074°06'0 0.0
2015-Jul-22 09:33N 40°39' W 074°06'0 0.0
2015-Jul-22 08:33N 40°39' W 074°06'0 0.0
2015-Jul-22 07:33N 40°39' W 074°06'0 0.0
2015-Jul-22 06:33N 40°39' W 074°06'0 0.0
2015-Jul-22 05:33N 40°39' W 074°06'0 0.0
2015-Jul-22 04:33N 40°39' W 074°06'0 0.0
2015-Jul-22 03:33N 40°39' W 074°06'0 0.0
2015-Jul-22 02:33N 40°39' W 074°06'0 0.0
2015-Jul-22 01:33N 40°39' W 074°06'0 0.0
2015-Jul-22 00:33N 40°39' W 074°06'0 0.0
2015-Jul-21 23:33N 40°39' W 074°06'0 0.0
2015-Jul-21 22:33N 40°39' W 074°06'0 0.0
2015-Jul-21 21:33N 40°39' W 074°06'0 0.0
2015-Jul-21 20:33N 40°39' W 074°06'0 0.0
2015-Jul-21 19:33N 40°39' W 074°06'0 0.0
2015-Jul-21 18:33N 40°39' W 074°06'0 0.0
2015-Jul-21 17:33N 40°39' W 074°06'0 0.0
2015-Jul-21 16:33N 40°39' W 074°06'0 0.0
2015-Jul-21 15:33N 40°39' W 074°06'0 0.0
2015-Jul-21 14:33N 40°39' W 074°06'0 0.0
2015-Jul-21 13:33N 40°39' W 074°06'0 0.0
2015-Jul-21 12:33N 40°39' W 074°06'0 0.0
2015-Jul-21 11:33N 40°39' W 074°06'0 0.0
2015-Jul-21 10:33N 40°39' W 074°06'0 0.0
2015-Jul-21 09:33N 40°39' W 074°06'0 0.0
2015-Jul-21 08:33N 40°39' W 074°06'0 0.0
2015-Jul-21 07:33N 40°39' W 074°06'5 4.9
2015-Jul-21 06:33N 40°35' W 074°02'5 4.8
2015-Jul-21 05:33N 40°31' W 073°59'8 7.5
2015-Jul-21 04:26N 40°23' W 073°53'9 9.0
2015-Jul-21 03:28N 40°15' W 073°54'27 9.2
2015-Jul-21 00:33N 39°48' W 073°59'9 9.3
2015-Jul-20 23:33N 39°39' W 074°02'9 9.0
2015-Jul-20 22:33N 39°31' W 074°07'12 8.7
2015-Jul-20 21:08N 39°21' W 074°16'43 8.6
2015-Jul-20 16:04N 38°49' W 074°54'4 7.6
2015-Jul-20 15:33N 38°48' W 074°59'7 6.5
2015-Jul-20 14:33N 38°53' W 075°04'5 4.4
2015-Jul-20 13:29N 38°57' W 075°07'8 8.2
2015-Jul-20 12:33N 39°04' W 075°11'10 9.7
2015-Jul-20 11:33N 39°13' W 075°17'1111.2
2015-Jul-20 10:33N 39°21' W 075°27'1010.2
2015-Jul-20 09:33N 39°30' W 075°33'5 5.3
2015-Jul-20 08:33N 39°33' W 075°39'7 6.9
2015-Jul-20 07:33N 39°32' W 075°48'7 7.0
2015-Jul-20 06:33N 39°29' W 075°56'9 8.7
2015-Jul-20 05:30N 39°23' W 076°05'10 8.8
2015-Jul-20 04:21N 39°16' W 076°14'7 9.2
2015-Jul-20 03:33N 39°09' W 076°19'7 7.2
2015-Jul-20 02:33N 39°12' W 076°28'1 1.0
2015-Jul-20 01:33N 39°13' W 076°28'0 0.0
2015-Jul-20 00:33N 39°13' W 076°28'0 0.0
2015-Jul-19 23:28N 39°13' W 076°28'  
Track history (hours):
 
Tides and Currents Weather Stations Pressure Air Temp Water Temp Dewpoint Dewpoint Depression Visibility Wind Speed Wind Dir Waves Ship Positions

Doris Moran

Owner: MORAN TOWING CORPORATION, New Canaan, CT. More information available from US FCC via Universal Licensing System and Coast Guard Vessel Documentation Center.

Last reported at 2015-Jul-29 21:34 UTC. Time now 2015-Jul-29 22:03 UTC.
Position N 41°40' W 070°41'.

Length 36 m; draft 5.3 m.

Type: Ship. MMSI: 366939790.

Date/timePositionNaut miles runAvg speedWind from/ knotsBaromVisibWave heightAir tempDewpointWater temp
2015-Jul-29 21:34N 41°40' W 070°41'8 8.3
2015-Jul-29 20:33N 41°32' W 070°46'6 6.3
2015-Jul-29 19:33N 41°29' W 070°54'8 7.7
2015-Jul-29 18:34N 41°25' W 071°03'8 8.1
2015-Jul-29 17:34N 41°21' W 071°12'8 8.1
2015-Jul-29 16:34N 41°18' W 071°22'8 8.4
2015-Jul-29 15:33N 41°18' W 071°33'9 9.3
2015-Jul-29 14:33N 41°16' W 071°45'8 8.5
2015-Jul-29 13:33N 41°15' W 071°56'6 5.8
2015-Jul-29 12:34N 41°14' W 072°04'5 5.5
2015-Jul-29 11:33N 41°13' W 072°11'6 6.5
2015-Jul-29 10:34N 41°11' W 072°19'7 6.9
2015-Jul-29 09:34N 41°09' W 072°28'8 7.7
2015-Jul-29 08:33N 41°07' W 072°38'8 8.3
2015-Jul-29 07:33N 41°05' W 072°48'8 8.4
2015-Jul-29 06:33N 41°03' W 072°59'9 8.7
2015-Jul-29 05:33N 41°01' W 073°11'8 8.5
2015-Jul-29 04:33N 41°01' W 073°22'7 7.0
2015-Jul-29 03:34N 40°58' W 073°30'5 5.5
2015-Jul-29 02:34N 40°55' W 073°37'8 8.1
2015-Jul-29 01:33N 40°51' W 073°46'6 6.4
2015-Jul-29 00:33N 40°48' W 073°53'6 6.2
2015-Jul-28 23:33N 40°43' W 073°58'7 7.1
2015-Jul-28 22:34N 40°39' W 074°06'0 0.0
2015-Jul-28 21:34N 40°39' W 074°06'0 0.0
2015-Jul-28 20:34N 40°39' W 074°06'0 0.0
2015-Jul-28 19:33N 40°39' W 074°06'0 0.0
2015-Jul-28 18:33N 40°39' W 074°06'0 0.0
2015-Jul-28 17:33N 40°39' W 074°06'0 0.0
2015-Jul-28 16:33N 40°39' W 074°06'0 0.0
2015-Jul-28 15:33N 40°39' W 074°06'0 0.0
2015-Jul-28 14:33N 40°39' W 074°06'0 0.0
2015-Jul-28 13:33N 40°39' W 074°06'0 0.0
2015-Jul-28 12:33N 40°39' W 074°06'0 0.0
2015-Jul-28 11:33N 40°39' W 074°06'0 0.0
2015-Jul-28 10:33N 40°39' W 074°06'1 1.0
2015-Jul-28 09:33N 40°39' W 074°04'2 1.7
2015-Jul-28 08:33N 40°40' W 074°03'0 0.1
2015-Jul-28 07:33N 40°40' W 074°02'0 0.1
2015-Jul-28 06:34N 40°40' W 074°03'5 5.0
2015-Jul-28 05:33N 40°45' W 074°01'9 9.1
2015-Jul-28 04:33N 40°53' W 073°56'17 7.1
2015-Jul-28 02:07N 41°10' W 073°55'23 0.7
2015-Jul-26 17:33N 40°48' W 073°59'9 9.5
2015-Jul-26 16:34N 40°39' W 074°04'3 2.4
2015-Jul-26 15:24N 40°38' W 074°08'0 0.0
2015-Jul-26 14:33N 40°38' W 074°08'0 0.0
2015-Jul-26 13:33N 40°38' W 074°08'0 0.0
2015-Jul-26 12:31N 40°38' W 074°08'0 0.0
2015-Jul-26 11:32N 40°38' W 074°08'0 0.0
2015-Jul-26 10:13N 40°38' W 074°08'0 0.0
2015-Jul-26 09:07N 40°38' W 074°08'0 0.0
2015-Jul-26 04:09N 40°38' W 074°08'0 0.0
2015-Jul-26 03:33N 40°38' W 074°08'0 0.0
2015-Jul-26 02:33N 40°38' W 074°08'0 0.0
2015-Jul-26 00:31N 40°38' W 074°08'0 0.0
2015-Jul-25 23:33N 40°38' W 074°08'7 6.8
2015-Jul-25 22:34N 40°33' W 074°02'4 3.7
2015-Jul-25 21:33N 40°37' W 074°03'4 3.8
2015-Jul-25 20:33N 40°38' W 074°08'1 1.0
2015-Jul-25 19:33N 40°39' W 074°07'0 0.0
2015-Jul-25 18:33N 40°39' W 074°07'0 0.0
2015-Jul-25 17:33N 40°39' W 074°07'1 0.6
2015-Jul-25 16:33N 40°39' W 074°06'2 1.6
2015-Jul-25 15:33N 40°38' W 074°08'0 0.0
2015-Jul-25 14:33N 40°38' W 074°08'0 0.0
2015-Jul-25 13:33N 40°38' W 074°08'3 2.8
2015-Jul-25 12:34N 40°41' W 074°08'1 1.4
2015-Jul-25 11:34N 40°40' W 074°08'1 1.5
2015-Jul-25 10:33N 40°38' W 074°08'0 0.0
2015-Jul-25 09:33N 40°38' W 074°08'0 0.0
2015-Jul-25 08:33N 40°38' W 074°08'0 0.0
2015-Jul-25 07:33N 40°38' W 074°08'0 0.0
2015-Jul-25 06:33N 40°38' W 074°08'0 0.0
2015-Jul-25 05:33N 40°38' W 074°08'0 0.0
2015-Jul-25 04:34N 40°38' W 074°08'0 0.0
2015-Jul-25 03:33N 40°38' W 074°08'0 0.0
2015-Jul-25 02:34N 40°38' W 074°08'0 0.0
2015-Jul-25 01:33N 40°38' W 074°08'0 0.0
2015-Jul-25 00:33N 40°38' W 074°08'0 0.0
2015-Jul-24 23:34N 40°38' W 074°08'3 2.6
2015-Jul-24 22:33N 40°41' W 074°08'1 0.8
2015-Jul-24 21:33N 40°42' W 074°08'1 0.6
2015-Jul-24 20:34N 40°41' W 074°08'2 1.7
2015-Jul-24 19:33N 40°39' W 074°09'6 6.4
2015-Jul-24 18:33N 40°41' W 074°01'3 2.9
2015-Jul-24 17:33N 40°40' W 074°04'0 0.0
2015-Jul-24 16:33N 40°40' W 074°04'0 0.3
2015-Jul-24 15:33N 40°40' W 074°04'3 2.9
2015-Jul-24 14:32N 40°38' W 074°08'0 0.0
2015-Jul-24 13:33N 40°38' W 074°08'0 0.0
2015-Jul-24 12:33N 40°38' W 074°08'0 0.0
2015-Jul-24 11:33N 40°38' W 074°08'2 1.8
2015-Jul-24 10:33N 40°40' W 074°08'4 3.9
2015-Jul-24 09:33N 40°39' W 074°04'1 1.1
2015-Jul-24 08:33N 40°40' W 074°04'4 3.6
2015-Jul-24 07:33N 40°38' W 074°09'3 2.5
2015-Jul-24 06:33N 40°41' W 074°09'2 1.7
2015-Jul-24 05:33N 40°39' W 074°09'1 1.1
2015-Jul-24 04:33N 40°38' W 074°08'0 0.0
2015-Jul-24 03:33N 40°38' W 074°08'0 0.0
2015-Jul-24 02:34N 40°38' W 074°08'0 0.0
2015-Jul-24 01:33N 40°38' W 074°08'0 0.0
2015-Jul-24 00:33N 40°38' W 074°08'6 6.4
2015-Jul-23 23:34N 40°41' W 074°00'7 6.9
2015-Jul-23 22:34N 40°39' W 074°09'3 3.3
2015-Jul-23 21:33N 40°42' W 074°09'2 2.2
2015-Jul-23 20:33N 40°40' W 074°09'1 1.1
2015-Jul-23 19:33N 40°41' W 074°09'4 4.2
2015-Jul-23 18:33N 40°39' W 074°04'1110.8
2015-Jul-23 17:33N 40°49' W 073°58'1 0.0
2015-Jul-22 17:33N 40°50' W 073°58'1010.2
2015-Jul-22 16:33N 40°40' W 074°03'3 2.6
2015-Jul-22 15:33N 40°39' W 074°06'0 0.0
2015-Jul-22 14:33N 40°39' W 074°06'0 0.0
2015-Jul-22 13:33N 40°39' W 074°06'0 0.0
2015-Jul-22 12:33N 40°39' W 074°06'0 0.0
2015-Jul-22 11:33N 40°39' W 074°06'0 0.0
2015-Jul-22 10:33N 40°39' W 074°06'0 0.0
2015-Jul-22 09:33N 40°39' W 074°06'0 0.0
2015-Jul-22 08:33N 40°39' W 074°06'0 0.0
2015-Jul-22 07:33N 40°39' W 074°06'0 0.0
2015-Jul-22 06:33N 40°39' W 074°06'0 0.0
2015-Jul-22 05:33N 40°39' W 074°06'0 0.0
2015-Jul-22 04:33N 40°39' W 074°06'0 0.0
2015-Jul-22 03:33N 40°39' W 074°06'0 0.0
2015-Jul-22 02:33N 40°39' W 074°06'0 0.0
2015-Jul-22 01:33N 40°39' W 074°06'0 0.0
2015-Jul-22 00:33N 40°39' W 074°06'0 0.0
2015-Jul-21 23:33N 40°39' W 074°06'0 0.0
2015-Jul-21 22:33N 40°39' W 074°06'0 0.0
2015-Jul-21 21:33N 40°39' W 074°06'0 0.0
2015-Jul-21 20:33N 40°39' W 074°06'0 0.0
2015-Jul-21 19:33N 40°39' W 074°06'0 0.0
2015-Jul-21 18:33N 40°39' W 074°06'0 0.0
2015-Jul-21 17:33N 40°39' W 074°06'0 0.0
2015-Jul-21 16:33N 40°39' W 074°06'0 0.0
2015-Jul-21 15:33N 40°39' W 074°06'0 0.0
2015-Jul-21 14:33N 40°39' W 074°06'0 0.0
2015-Jul-21 13:33N 40°39' W 074°06'0 0.0
2015-Jul-21 12:33N 40°39' W 074°06'0 0.0
2015-Jul-21 11:33N 40°39' W 074°06'0 0.0
2015-Jul-21 10:33N 40°39' W 074°06'0 0.0
2015-Jul-21 09:33N 40°39' W 074°06'0 0.0
2015-Jul-21 08:33N 40°39' W 074°06'0 0.0
2015-Jul-21 07:33N 40°39' W 074°06'5 4.9
2015-Jul-21 06:33N 40°35' W 074°02'5 4.8
2015-Jul-21 05:33N 40°31' W 073°59'8 7.5
2015-Jul-21 04:26N 40°23' W 073°53'9 9.0
2015-Jul-21 03:28N 40°15' W 073°54'27 9.2
2015-Jul-21 00:33N 39°48' W 073°59'9 9.3
2015-Jul-20 23:33N 39°39' W 074°02'9 9.0
2015-Jul-20 22:33N 39°31' W 074°07'12 8.7
2015-Jul-20 21:08N 39°21' W 074°16'43 8.6
2015-Jul-20 16:04N 38°49' W 074°54'4 7.6
2015-Jul-20 15:33N 38°48' W 074°59'7 6.5
2015-Jul-20 14:33N 38°53' W 075°04'5 4.4
2015-Jul-20 13:29N 38°57' W 075°07'8 8.2
2015-Jul-20 12:33N 39°04' W 075°11'10 9.7
2015-Jul-20 11:33N 39°13' W 075°17'1111.2
2015-Jul-20 10:33N 39°21' W 075°27'1010.2
2015-Jul-20 09:33N 39°30' W 075°33'5 5.3
2015-Jul-20 08:33N 39°33' W 075°39'7 6.9
2015-Jul-20 07:33N 39°32' W 075°48'7 7.0
2015-Jul-20 06:33N 39°29' W 075°56'9 8.7
2015-Jul-20 05:30N 39°23' W 076°05'10 8.8
2015-Jul-20 04:21N 39°16' W 076°14'7 9.2
2015-Jul-20 03:33N 39°09' W 076°19'7 7.2
2015-Jul-20 02:33N 39°12' W 076°28'1 1.0
2015-Jul-20 01:33N 39°13' W 076°28'0 0.0
2015-Jul-20 00:33N 39°13' W 076°28'0 0.0
2015-Jul-19 23:28N 39°13' W 076°28'  

Dump ship's entire track history